sensor_id;sensor_type;location;lat;lon;timestamp;temperature;humidity
26304;DHT22;57113;48.680;8.890;2022-11-20T00:02:20;11.40;99.90
26304;DHT22;57113;48.680;8.890;2022-11-20T00:04:46;11.40;99.90
26304;DHT22;57113;48.680;8.890;2022-11-20T00:07:11;11.40;99.90
26304;DHT22;57113;48.680;8.890;2022-11-20T00:09:37;11.40;99.90
26304;DHT22;57113;48.680;8.890;2022-11-20T00:12:02;11.40;99.90
26304;DHT22;57113;48.680;8.890;2022-11-20T00:14:28;11.40;99.90
26304;DHT22;57113;48.680;8.890;2022-11-20T00:16:54;11.40;99.90
26304;DHT22;57113;48.680;8.890;2022-11-20T00:19:19;11.40;99.90
26304;DHT22;57113;48.680;8.890;2022-11-20T00:21:45;11.40;99.90
26304;DHT22;57113;48.680;8.890;2022-11-20T00:24:10;11.40;99.90
26304;DHT22;57113;48.680;8.890;2022-11-20T00:26:36;11.40;99.90
26304;DHT22;57113;48.680;8.890;2022-11-20T00:29:02;11.40;99.90
26304;DHT22;57113;48.680;8.890;2022-11-20T00:31:28;11.40;99.90
26304;DHT22;57113;48.680;8.890;2022-11-20T00:33:54;11.40;99.90
26304;DHT22;57113;48.680;8.890;2022-11-20T00:36:21;11.40;99.90
26304;DHT22;57113;48.680;8.890;2022-11-20T00:38:50;11.40;99.90
26304;DHT22;57113;48.680;8.890;2022-11-20T00:41:17;11.40;99.90
26304;DHT22;57113;48.680;8.890;2022-11-20T00:43:42;11.40;99.90
26304;DHT22;57113;48.680;8.890;2022-11-20T00:46:18;11.30;99.90
26304;DHT22;57113;48.680;8.890;2022-11-20T00:48:45;11.30;99.90
26304;DHT22;57113;48.680;8.890;2022-11-20T00:51:11;11.30;99.90
26304;DHT22;57113;48.680;8.890;2022-11-20T00:53:37;11.40;99.90
26304;DHT22;57113;48.680;8.890;2022-11-20T00:56:03;11.30;99.90
26304;DHT22;57113;48.680;8.890;2022-11-20T00:58:30;11.30;99.90
26304;DHT22;57113;48.680;8.890;2022-11-20T01:01:09;11.30;99.90
26304;DHT22;57113;48.680;8.890;2022-11-20T01:03:35;11.30;99.90
26304;DHT22;57113;48.680;8.890;2022-11-20T01:06:02;11.40;99.90
26304;DHT22;57113;48.680;8.890;2022-11-20T01:08:31;11.40;99.90
26304;DHT22;57113;48.680;8.890;2022-11-20T01:11:01;11.30;99.90
26304;DHT22;57113;48.680;8.890;2022-11-20T01:13:27;11.30;99.90
26304;DHT22;57113;48.680;8.890;2022-11-20T01:18:31;11.30;99.90
26304;DHT22;57113;48.680;8.890;2022-11-20T01:21:00;11.30;99.90
26304;DHT22;57113;48.680;8.890;2022-11-20T01:23:26;11.30;99.90
26304;DHT22;57113;48.680;8.890;2022-11-20T01:25:51;11.30;99.90
26304;DHT22;57113;48.680;8.890;2022-11-20T01:28:17;11.30;99.90
26304;DHT22;57113;48.680;8.890;2022-11-20T01:30:42;11.30;99.90
26304;DHT22;57113;48.680;8.890;2022-11-20T01:33:08;11.30;99.90
26304;DHT22;57113;48.680;8.890;2022-11-20T01:35:33;11.30;99.90
26304;DHT22;57113;48.680;8.890;2022-11-20T01:37:59;11.30;99.90
26304;DHT22;57113;48.680;8.890;2022-11-20T01:40:24;11.30;99.90
26304;DHT22;57113;48.680;8.890;2022-11-20T01:42:55;11.30;99.90
26304;DHT22;57113;48.680;8.890;2022-11-20T01:45:53;11.30;99.90
26304;DHT22;57113;48.680;8.890;2022-11-20T01:48:21;11.20;99.90
26304;DHT22;57113;48.680;8.890;2022-11-20T01:50:48;11.20;99.90
26304;DHT22;57113;48.680;8.890;2022-11-20T01:53:15;11.20;99.90
26304;DHT22;57113;48.680;8.890;2022-11-20T01:55:43;11.30;99.90
26304;DHT22;57113;48.680;8.890;2022-11-20T01:58:10;11.30;99.90
26304;DHT22;57113;48.680;8.890;2022-11-20T02:00:36;11.30;99.90
26304;DHT22;57113;48.680;8.890;2022-11-20T02:03:06;11.20;99.90
26304;DHT22;57113;48.680;8.890;2022-11-20T02:05:33;11.30;99.90
26304;DHT22;57113;48.680;8.890;2022-11-20T02:08:01;11.20;99.90
26304;DHT22;57113;48.680;8.890;2022-11-20T02:10:27;11.20;99.90
26304;DHT22;57113;48.680;8.890;2022-11-20T02:12:53;11.20;99.90
26304;DHT22;57113;48.680;8.890;2022-11-20T02:15:37;11.20;99.90
26304;DHT22;57113;48.680;8.890;2022-11-20T02:18:03;11.20;99.90
26304;DHT22;57113;48.680;8.890;2022-11-20T02:20:30;11.20;99.90
26304;DHT22;57113;48.680;8.890;2022-11-20T02:22:57;11.20;99.90
26304;DHT22;57113;48.680;8.890;2022-11-20T02:25:24;11.30;99.90
26304;DHT22;57113;48.680;8.890;2022-11-20T02:27:51;11.20;99.90
26304;DHT22;57113;48.680;8.890;2022-11-20T02:30:17;11.20;99.90
26304;DHT22;57113;48.680;8.890;2022-11-20T02:32:42;11.30;99.90
26304;DHT22;57113;48.680;8.890;2022-11-20T02:35:09;11.20;99.90
26304;DHT22;57113;48.680;8.890;2022-11-20T02:37:36;11.20;99.90
26304;DHT22;57113;48.680;8.890;2022-11-20T02:40:02;11.20;99.90
26304;DHT22;57113;48.680;8.890;2022-11-20T02:42:28;11.20;99.90
26304;DHT22;57113;48.680;8.890;2022-11-20T02:44:54;11.20;99.90
26304;DHT22;57113;48.680;8.890;2022-11-20T02:47:19;11.20;99.90
26304;DHT22;57113;48.680;8.890;2022-11-20T02:49:45;11.20;99.90
26304;DHT22;57113;48.680;8.890;2022-11-20T02:52:11;11.20;99.90
26304;DHT22;57113;48.680;8.890;2022-11-20T02:54:36;11.20;99.90
26304;DHT22;57113;48.680;8.890;2022-11-20T02:57:02;11.20;99.90
26304;DHT22;57113;48.680;8.890;2022-11-20T02:59:27;11.20;99.90
26304;DHT22;57113;48.680;8.890;2022-11-20T03:01:53;11.20;99.90
26304;DHT22;57113;48.680;8.890;2022-11-20T03:04:18;11.20;99.90
26304;DHT22;57113;48.680;8.890;2022-11-20T03:06:44;11.20;99.90
26304;DHT22;57113;48.680;8.890;2022-11-20T03:09:09;11.20;99.90
26304;DHT22;57113;48.680;8.890;2022-11-20T03:11:35;11.20;99.90
26304;DHT22;57113;48.680;8.890;2022-11-20T03:14:02;11.20;99.90
26304;DHT22;57113;48.680;8.890;2022-11-20T03:16:27;11.20;99.90
26304;DHT22;57113;48.680;8.890;2022-11-20T03:18:53;11.20;99.90
26304;DHT22;57113;48.680;8.890;2022-11-20T03:21:18;11.20;99.90
26304;DHT22;57113;48.680;8.890;2022-11-20T03:23:44;11.20;99.90
26304;DHT22;57113;48.680;8.890;2022-11-20T03:26:11;11.20;99.90
26304;DHT22;57113;48.680;8.890;2022-11-20T03:28:37;11.20;99.90
26304;DHT22;57113;48.680;8.890;2022-11-20T03:31:07;11.20;99.90
26304;DHT22;57113;48.680;8.890;2022-11-20T03:33:32;11.20;99.90
26304;DHT22;57113;48.680;8.890;2022-11-20T03:36:01;11.20;99.90
26304;DHT22;57113;48.680;8.890;2022-11-20T03:38:31;11.20;99.90
26304;DHT22;57113;48.680;8.890;2022-11-20T03:41:00;11.10;99.90
26304;DHT22;57113;48.680;8.890;2022-11-20T03:43:26;11.20;99.90
26304;DHT22;57113;48.680;8.890;2022-11-20T03:45:53;11.20;99.90
26304;DHT22;57113;48.680;8.890;2022-11-20T03:48:19;11.20;99.90
26304;DHT22;57113;48.680;8.890;2022-11-20T03:50:44;11.10;99.90
26304;DHT22;57113;48.680;8.890;2022-11-20T03:53:13;11.10;99.90
26304;DHT22;57113;48.680;8.890;2022-11-20T03:55:39;11.20;99.90
26304;DHT22;57113;48.680;8.890;2022-11-20T03:58:04;11.10;99.90
26304;DHT22;57113;48.680;8.890;2022-11-20T04:00:29;11.10;99.90
26304;DHT22;57113;48.680;8.890;2022-11-20T04:02:58;11.10;99.90
26304;DHT22;57113;48.680;8.890;2022-11-20T04:05:24;11.10;99.90
26304;DHT22;57113;48.680;8.890;2022-11-20T04:07:50;11.10;99.90
26304;DHT22;57113;48.680;8.890;2022-11-20T04:10:15;11.10;99.90
26304;DHT22;57113;48.680;8.890;2022-11-20T04:12:41;11.20;99.90
26304;DHT22;57113;48.680;8.890;2022-11-20T04:15:06;11.20;99.90
26304;DHT22;57113;48.680;8.890;2022-11-20T04:17:32;11.10;99.90
26304;DHT22;57113;48.680;8.890;2022-11-20T04:19:57;11.10;99.90
26304;DHT22;57113;48.680;8.890;2022-11-20T04:22:23;11.10;99.90
26304;DHT22;57113;48.680;8.890;2022-11-20T04:24:48;11.10;99.90
26304;DHT22;57113;48.680;8.890;2022-11-20T04:27:14;11.20;99.90
26304;DHT22;57113;48.680;8.890;2022-11-20T04:29:40;11.20;99.90
26304;DHT22;57113;48.680;8.890;2022-11-20T04:32:05;11.10;99.90
26304;DHT22;57113;48.680;8.890;2022-11-20T04:34:31;11.10;99.90
26304;DHT22;57113;48.680;8.890;2022-11-20T04:36:56;11.20;99.90
26304;DHT22;57113;48.680;8.890;2022-11-20T04:39:22;11.10;99.90
26304;DHT22;57113;48.680;8.890;2022-11-20T04:41:48;11.10;99.90
26304;DHT22;57113;48.680;8.890;2022-11-20T04:44:33;11.10;99.90
26304;DHT22;57113;48.680;8.890;2022-11-20T04:46:59;11.10;99.90
26304;DHT22;57113;48.680;8.890;2022-11-20T04:49:24;11.10;99.90
26304;DHT22;57113;48.680;8.890;2022-11-20T04:51:52;11.10;99.90
26304;DHT22;57113;48.680;8.890;2022-11-20T04:54:18;11.10;99.90
26304;DHT22;57113;48.680;8.890;2022-11-20T04:56:48;11.10;99.90
26304;DHT22;57113;48.680;8.890;2022-11-20T04:59:14;11.10;99.90
26304;DHT22;57113;48.680;8.890;2022-11-20T05:01:39;11.10;99.90
26304;DHT22;57113;48.680;8.890;2022-11-20T05:04:05;11.10;99.90
26304;DHT22;57113;48.680;8.890;2022-11-20T05:06:31;11.10;99.90
26304;DHT22;57113;48.680;8.890;2022-11-20T05:08:57;11.10;99.90
26304;DHT22;57113;48.680;8.890;2022-11-20T05:11:22;11.10;99.90
26304;DHT22;57113;48.680;8.890;2022-11-20T05:13:49;11.10;99.90
26304;DHT22;57113;48.680;8.890;2022-11-20T05:16:16;11.10;99.90
26304;DHT22;57113;48.680;8.890;2022-11-20T05:18:42;11.10;99.90
26304;DHT22;57113;48.680;8.890;2022-11-20T05:21:08;11.10;99.90
26304;DHT22;57113;48.680;8.890;2022-11-20T05:23:34;11.10;99.90
26304;DHT22;57113;48.680;8.890;2022-11-20T05:25:59;11.10;99.90
26304;DHT22;57113;48.680;8.890;2022-11-20T05:28:26;11.10;99.90
26304;DHT22;57113;48.680;8.890;2022-11-20T05:30:52;11.10;99.90
26304;DHT22;57113;48.680;8.890;2022-11-20T05:33:17;11.10;99.90
26304;DHT22;57113;48.680;8.890;2022-11-20T05:35:43;11.10;99.90
26304;DHT22;57113;48.680;8.890;2022-11-20T05:38:08;11.10;99.90
26304;DHT22;57113;48.680;8.890;2022-11-20T05:40:34;11.10;99.90
26304;DHT22;57113;48.680;8.890;2022-11-20T05:42:59;11.10;99.90
26304;DHT22;57113;48.680;8.890;2022-11-20T05:45:25;11.10;99.90
26304;DHT22;57113;48.680;8.890;2022-11-20T05:47:51;11.10;99.90
26304;DHT22;57113;48.680;8.890;2022-11-20T05:50:16;11.10;99.90
26304;DHT22;57113;48.680;8.890;2022-11-20T05:52:42;11.10;99.90
26304;DHT22;57113;48.680;8.890;2022-11-20T05:55:07;11.10;99.90
26304;DHT22;57113;48.680;8.890;2022-11-20T05:57:33;11.10;99.90
26304;DHT22;57113;48.680;8.890;2022-11-20T05:59:58;11.10;99.90
26304;DHT22;57113;48.680;8.890;2022-11-20T06:02:24;11.10;99.90
26304;DHT22;57113;48.680;8.890;2022-11-20T06:04:49;11.00;99.90
26304;DHT22;57113;48.680;8.890;2022-11-20T06:07:15;11.10;99.90
26304;DHT22;57113;48.680;8.890;2022-11-20T06:09:40;11.10;99.90
26304;DHT22;57113;48.680;8.890;2022-11-20T06:12:06;11.00;99.90
26304;DHT22;57113;48.680;8.890;2022-11-20T06:14:32;11.10;99.90
26304;DHT22;57113;48.680;8.890;2022-11-20T06:16:57;11.10;99.90
26304;DHT22;57113;48.680;8.890;2022-11-20T06:19:23;11.10;99.90
26304;DHT22;57113;48.680;8.890;2022-11-20T06:21:48;11.10;99.90
26304;DHT22;57113;48.680;8.890;2022-11-20T06:24:17;11.00;99.90
26304;DHT22;57113;48.680;8.890;2022-11-20T06:26:42;11.00;99.90
26304;DHT22;57113;48.680;8.890;2022-11-20T06:29:08;11.00;99.90
26304;DHT22;57113;48.680;8.890;2022-11-20T06:31:34;11.00;99.90
26304;DHT22;57113;48.680;8.890;2022-11-20T06:34:05;11.10;99.90
26304;DHT22;57113;48.680;8.890;2022-11-20T06:36:31;11.00;99.90
26304;DHT22;57113;48.680;8.890;2022-11-20T06:38:57;11.00;99.90
26304;DHT22;57113;48.680;8.890;2022-11-20T06:41:23;11.00;99.90
26304;DHT22;57113;48.680;8.890;2022-11-20T06:43:48;11.00;99.90
26304;DHT22;57113;48.680;8.890;2022-11-20T06:46:15;11.00;99.90
26304;DHT22;57113;48.680;8.890;2022-11-20T06:48:42;11.00;99.90
26304;DHT22;57113;48.680;8.890;2022-11-20T06:51:08;11.10;99.90
26304;DHT22;57113;48.680;8.890;2022-11-20T06:53:34;11.00;99.90
26304;DHT22;57113;48.680;8.890;2022-11-20T06:56:00;11.00;99.90
26304;DHT22;57113;48.680;8.890;2022-11-20T06:58:26;11.00;99.90
26304;DHT22;57113;48.680;8.890;2022-11-20T07:00:52;11.00;99.90
26304;DHT22;57113;48.680;8.890;2022-11-20T07:03:17;11.00;99.90
26304;DHT22;57113;48.680;8.890;2022-11-20T07:05:43;11.00;99.90
26304;DHT22;57113;48.680;8.890;2022-11-20T07:08:09;11.10;99.90
26304;DHT22;57113;48.680;8.890;2022-11-20T07:10:34;11.00;99.90
26304;DHT22;57113;48.680;8.890;2022-11-20T07:13:00;11.00;99.90
26304;DHT22;57113;48.680;8.890;2022-11-20T07:15:25;11.00;99.90
26304;DHT22;57113;48.680;8.890;2022-11-20T07:17:51;11.00;99.90
26304;DHT22;57113;48.680;8.890;2022-11-20T07:20:17;11.00;99.90
26304;DHT22;57113;48.680;8.890;2022-11-20T07:22:42;11.00;99.90
26304;DHT22;57113;48.680;8.890;2022-11-20T07:25:08;11.00;99.90
26304;DHT22;57113;48.680;8.890;2022-11-20T07:27:34;11.00;99.90
26304;DHT22;57113;48.680;8.890;2022-11-20T07:30:00;11.00;99.90
26304;DHT22;57113;48.680;8.890;2022-11-20T07:32:25;11.00;99.90
26304;DHT22;57113;48.680;8.890;2022-11-20T07:34:51;11.00;99.90
26304;DHT22;57113;48.680;8.890;2022-11-20T07:37:16;11.00;99.90
26304;DHT22;57113;48.680;8.890;2022-11-20T07:39:42;11.00;99.90
26304;DHT22;57113;48.680;8.890;2022-11-20T07:42:08;10.90;99.90
26304;DHT22;57113;48.680;8.890;2022-11-20T07:44:34;11.00;99.90
26304;DHT22;57113;48.680;8.890;2022-11-20T07:46:59;10.90;99.90
26304;DHT22;57113;48.680;8.890;2022-11-20T07:49:25;10.90;99.90
26304;DHT22;57113;48.680;8.890;2022-11-20T07:51:51;10.90;99.90
26304;DHT22;57113;48.680;8.890;2022-11-20T07:54:18;10.90;99.90
26304;DHT22;57113;48.680;8.890;2022-11-20T07:56:43;10.90;99.90
26304;DHT22;57113;48.680;8.890;2022-11-20T07:59:09;10.90;99.90
26304;DHT22;57113;48.680;8.890;2022-11-20T08:01:37;10.90;99.90
26304;DHT22;57113;48.680;8.890;2022-11-20T08:04:03;11.00;99.90
26304;DHT22;57113;48.680;8.890;2022-11-20T08:06:28;10.90;99.90
26304;DHT22;57113;48.680;8.890;2022-11-20T08:08:54;10.70;99.90
26304;DHT22;57113;48.680;8.890;2022-11-20T08:11:19;10.70;99.90
26304;DHT22;57113;48.680;8.890;2022-11-20T08:14:03;10.70;99.90
26304;DHT22;57113;48.680;8.890;2022-11-20T08:16:42;10.80;99.90
26304;DHT22;57113;48.680;8.890;2022-11-20T08:19:08;10.80;99.90
26304;DHT22;57113;48.680;8.890;2022-11-20T08:21:34;10.80;99.90
26304;DHT22;57113;48.680;8.890;2022-11-20T08:23:59;10.90;99.90
26304;DHT22;57113;48.680;8.890;2022-11-20T08:26:25;10.90;99.90
26304;DHT22;57113;48.680;8.890;2022-11-20T08:28:54;10.80;99.90
26304;DHT22;57113;48.680;8.890;2022-11-20T08:31:20;10.90;99.90
26304;DHT22;57113;48.680;8.890;2022-11-20T08:33:46;10.90;99.90
26304;DHT22;57113;48.680;8.890;2022-11-20T08:36:12;10.90;99.90
26304;DHT22;57113;48.680;8.890;2022-11-20T08:38:38;10.90;99.90
26304;DHT22;57113;48.680;8.890;2022-11-20T08:41:04;10.90;99.90
26304;DHT22;57113;48.680;8.890;2022-11-20T08:43:50;10.90;99.90
26304;DHT22;57113;48.680;8.890;2022-11-20T08:46:16;10.90;99.90
26304;DHT22;57113;48.680;8.890;2022-11-20T08:48:42;10.90;99.90
26304;DHT22;57113;48.680;8.890;2022-11-20T08:51:08;11.00;99.90
26304;DHT22;57113;48.680;8.890;2022-11-20T08:53:33;11.00;99.90
26304;DHT22;57113;48.680;8.890;2022-11-20T08:55:59;11.00;99.90
26304;DHT22;57113;48.680;8.890;2022-11-20T08:58:25;11.00;99.90
26304;DHT22;57113;48.680;8.890;2022-11-20T09:00:50;11.00;99.90
26304;DHT22;57113;48.680;8.890;2022-11-20T09:03:16;11.00;99.90
26304;DHT22;57113;48.680;8.890;2022-11-20T09:05:42;11.00;99.90
26304;DHT22;57113;48.680;8.890;2022-11-20T09:08:08;11.00;99.90
26304;DHT22;57113;48.680;8.890;2022-11-20T09:10:34;11.00;99.90
26304;DHT22;57113;48.680;8.890;2022-11-20T09:12:59;11.00;99.90
26304;DHT22;57113;48.680;8.890;2022-11-20T09:15:25;11.00;99.90
26304;DHT22;57113;48.680;8.890;2022-11-20T09:17:52;11.00;99.90
26304;DHT22;57113;48.680;8.890;2022-11-20T09:20:18;11.00;99.90
26304;DHT22;57113;48.680;8.890;2022-11-20T09:22:44;11.00;99.90
26304;DHT22;57113;48.680;8.890;2022-11-20T09:25:09;11.00;99.90
26304;DHT22;57113;48.680;8.890;2022-11-20T09:27:35;11.00;99.90
26304;DHT22;57113;48.680;8.890;2022-11-20T09:30:01;11.00;99.90
26304;DHT22;57113;48.680;8.890;2022-11-20T09:32:26;11.00;99.90
26304;DHT22;57113;48.680;8.890;2022-11-20T09:34:52;11.10;99.90
26304;DHT22;57113;48.680;8.890;2022-11-20T09:37:17;11.10;99.90
26304;DHT22;57113;48.680;8.890;2022-11-20T09:39:43;11.10;99.90
26304;DHT22;57113;48.680;8.890;2022-11-20T09:42:14;11.00;99.90
26304;DHT22;57113;48.680;8.890;2022-11-20T09:52:20;11.10;99.90
26304;DHT22;57113;48.680;8.890;2022-11-20T09:54:47;11.10;99.90
26304;DHT22;57113;48.680;8.890;2022-11-20T09:57:18;11.10;99.90
26304;DHT22;57113;48.680;8.890;2022-11-20T09:59:53;11.10;99.90
26304;DHT22;57113;48.680;8.890;2022-11-20T10:02:27;11.10;99.90
26304;DHT22;57113;48.680;8.890;2022-11-20T10:04:55;11.10;99.90
26304;DHT22;57113;48.680;8.890;2022-11-20T10:07:28;11.10;99.90
26304;DHT22;57113;48.680;8.890;2022-11-20T10:09:55;11.10;99.90
26304;DHT22;57113;48.680;8.890;2022-11-20T10:14:59;11.10;99.90
26304;DHT22;57113;48.680;8.890;2022-11-20T10:20:03;11.20;99.90
26304;DHT22;57113;48.680;8.890;2022-11-20T10:22:50;11.10;99.90
26304;DHT22;57113;48.680;8.890;2022-11-20T10:25:19;11.20;99.90
26304;DHT22;57113;48.680;8.890;2022-11-20T10:30:30;11.20;99.90
26304;DHT22;57113;48.680;8.890;2022-11-20T10:33:08;11.20;99.90
26304;DHT22;57113;48.680;8.890;2022-11-20T10:38:11;11.20;99.90
26304;DHT22;57113;48.680;8.890;2022-11-20T10:40:38;11.20;99.90
26304;DHT22;57113;48.680;8.890;2022-11-20T10:50:39;11.20;99.90
26304;DHT22;57113;48.680;8.890;2022-11-20T10:53:12;11.20;99.90
26304;DHT22;57113;48.680;8.890;2022-11-20T10:55:53;11.20;99.90
26304;DHT22;57113;48.680;8.890;2022-11-20T11:01:14;11.20;99.90
26304;DHT22;57113;48.680;8.890;2022-11-20T11:03:41;11.20;99.90
26304;DHT22;57113;48.680;8.890;2022-11-20T11:06:13;11.20;99.90
26304;DHT22;57113;48.680;8.890;2022-11-20T11:08:40;11.20;99.90
26304;DHT22;57113;48.680;8.890;2022-11-20T11:11:21;11.20;99.90
26304;DHT22;57113;48.680;8.890;2022-11-20T11:13:48;11.20;99.90
26304;DHT22;57113;48.680;8.890;2022-11-20T11:16:21;11.10;99.90
26304;DHT22;57113;48.680;8.890;2022-11-20T11:18:46;11.10;99.90
26304;DHT22;57113;48.680;8.890;2022-11-20T11:21:12;11.10;99.90
26304;DHT22;57113;48.680;8.890;2022-11-20T11:23:39;11.10;99.90
26304;DHT22;57113;48.680;8.890;2022-11-20T11:26:06;11.20;99.90
26304;DHT22;57113;48.680;8.890;2022-11-20T11:28:42;11.20;99.90
26304;DHT22;57113;48.680;8.890;2022-11-20T11:31:27;11.30;99.90
26304;DHT22;57113;48.680;8.890;2022-11-20T11:34:15;11.30;99.90
26304;DHT22;57113;48.680;8.890;2022-11-20T11:36:39;11.40;99.90
26304;DHT22;57113;48.680;8.890;2022-11-20T11:39:05;11.40;99.90
26304;DHT22;57113;48.680;8.890;2022-11-20T11:41:32;11.50;99.90
26304;DHT22;57113;48.680;8.890;2022-11-20T11:44:14;11.50;99.90
26304;DHT22;57113;48.680;8.890;2022-11-20T11:46:58;11.60;99.90
26304;DHT22;57113;48.680;8.890;2022-11-20T11:49:24;11.60;99.90
26304;DHT22;57113;48.680;8.890;2022-11-20T11:54:20;11.70;99.90
26304;DHT22;57113;48.680;8.890;2022-11-20T11:56:47;11.70;99.90
26304;DHT22;57113;48.680;8.890;2022-11-20T11:59:16;11.80;99.90
26304;DHT22;57113;48.680;8.890;2022-11-20T12:01:50;11.80;99.90
26304;DHT22;57113;48.680;8.890;2022-11-20T12:04:18;11.80;99.90
26304;DHT22;57113;48.680;8.890;2022-11-20T12:06:47;11.90;99.90
26304;DHT22;57113;48.680;8.890;2022-11-20T12:09:14;11.70;99.90
26304;DHT22;57113;48.680;8.890;2022-11-20T12:11:45;11.50;99.90
26304;DHT22;57113;48.680;8.890;2022-11-20T12:14:16;11.40;99.90
26304;DHT22;57113;48.680;8.890;2022-11-20T12:16:44;11.30;99.90
26304;DHT22;57113;48.680;8.890;2022-11-20T12:19:12;11.30;99.90
26304;DHT22;57113;48.680;8.890;2022-11-20T12:34:45;11.50;99.90
26304;DHT22;57113;48.680;8.890;2022-11-20T12:37:23;11.60;99.90
26304;DHT22;57113;48.680;8.890;2022-11-20T12:39:53;11.70;99.90
26304;DHT22;57113;48.680;8.890;2022-11-20T12:42:23;11.70;99.90
26304;DHT22;57113;48.680;8.890;2022-11-20T12:50:31;11.80;99.90
26304;DHT22;57113;48.680;8.890;2022-11-20T12:56:01;11.90;99.90
26304;DHT22;57113;48.680;8.890;2022-11-20T12:58:40;11.90;99.90
26304;DHT22;57113;48.680;8.890;2022-11-20T13:06:43;11.90;99.90
26304;DHT22;57113;48.680;8.890;2022-11-20T13:09:10;11.90;99.90
26304;DHT22;57113;48.680;8.890;2022-11-20T13:11:49;11.90;99.90
26304;DHT22;57113;48.680;8.890;2022-11-20T13:14:33;11.90;99.90
26304;DHT22;57113;48.680;8.890;2022-11-20T13:17:14;11.90;99.90
26304;DHT22;57113;48.680;8.890;2022-11-20T13:19:41;11.90;99.90
26304;DHT22;57113;48.680;8.890;2022-11-20T13:22:08;11.90;99.90
26304;DHT22;57113;48.680;8.890;2022-11-20T13:24:34;11.90;99.90
26304;DHT22;57113;48.680;8.890;2022-11-20T13:27:00;11.80;99.90
26304;DHT22;57113;48.680;8.890;2022-11-20T13:29:26;11.80;99.90
26304;DHT22;57113;48.680;8.890;2022-11-20T13:32:00;11.80;99.90
26304;DHT22;57113;48.680;8.890;2022-11-20T13:34:26;11.70;99.90
26304;DHT22;57113;48.680;8.890;2022-11-20T13:36:53;11.70;99.90
26304;DHT22;57113;48.680;8.890;2022-11-20T13:39:35;11.70;99.90
26304;DHT22;57113;48.680;8.890;2022-11-20T13:42:02;11.70;99.90
26304;DHT22;57113;48.680;8.890;2022-11-20T13:44:38;11.70;99.90
26304;DHT22;57113;48.680;8.890;2022-11-20T13:47:17;11.70;99.90
26304;DHT22;57113;48.680;8.890;2022-11-20T13:49:45;11.70;99.90
26304;DHT22;57113;48.680;8.890;2022-11-20T14:00:24;11.70;99.90
26304;DHT22;57113;48.680;8.890;2022-11-20T14:03:35;11.40;99.90
26304;DHT22;57113;48.680;8.890;2022-11-20T14:05:38;11.30;99.90
26304;DHT22;57113;48.680;8.890;2022-11-20T14:08:06;11.30;99.90
26304;DHT22;57113;48.680;8.890;2022-11-20T14:10:32;11.30;99.90
26304;DHT22;57113;48.680;8.890;2022-11-20T14:12:58;11.30;99.90
26304;DHT22;57113;48.680;8.890;2022-11-20T14:15:30;11.30;99.90
26304;DHT22;57113;48.680;8.890;2022-11-20T14:17:57;11.40;99.90
26304;DHT22;57113;48.680;8.890;2022-11-20T14:20:26;11.40;99.90
26304;DHT22;57113;48.680;8.890;2022-11-20T14:22:52;11.40;99.90
26304;DHT22;57113;48.680;8.890;2022-11-20T14:25:20;11.40;99.90
26304;DHT22;57113;48.680;8.890;2022-11-20T14:27:52;11.40;99.90
26304;DHT22;57113;48.680;8.890;2022-11-20T14:30:19;11.40;99.90
26304;DHT22;57113;48.680;8.890;2022-11-20T14:32:46;11.40;99.90
26304;DHT22;57113;48.680;8.890;2022-11-20T14:35:26;11.40;99.90
26304;DHT22;57113;48.680;8.890;2022-11-20T14:37:52;11.40;99.90
26304;DHT22;57113;48.680;8.890;2022-11-20T14:40:28;11.40;99.90
26304;DHT22;57113;48.680;8.890;2022-11-20T14:42:54;11.40;99.90
26304;DHT22;57113;48.680;8.890;2022-11-20T14:45:19;11.40;99.90
26304;DHT22;57113;48.680;8.890;2022-11-20T14:47:45;11.40;99.90
26304;DHT22;57113;48.680;8.890;2022-11-20T14:50:12;11.40;99.90
26304;DHT22;57113;48.680;8.890;2022-11-20T14:52:39;11.40;99.90
26304;DHT22;57113;48.680;8.890;2022-11-20T14:55:14;11.40;99.90
26304;DHT22;57113;48.680;8.890;2022-11-20T14:57:54;11.40;99.90
26304;DHT22;57113;48.680;8.890;2022-11-20T15:00:22;11.40;99.90
26304;DHT22;57113;48.680;8.890;2022-11-20T15:02:48;11.20;99.90
26304;DHT22;57113;48.680;8.890;2022-11-20T15:05:14;11.10;99.90
26304;DHT22;57113;48.680;8.890;2022-11-20T15:07:45;11.10;99.90
26304;DHT22;57113;48.680;8.890;2022-11-20T15:10:24;11.00;99.90
26304;DHT22;57113;48.680;8.890;2022-11-20T15:12:51;11.10;99.90
26304;DHT22;57113;48.680;8.890;2022-11-20T15:17:48;11.10;99.90
26304;DHT22;57113;48.680;8.890;2022-11-20T15:20:14;11.10;99.90
26304;DHT22;57113;48.680;8.890;2022-11-20T15:22:41;11.20;99.90
26304;DHT22;57113;48.680;8.890;2022-11-20T15:25:13;11.20;99.90
26304;DHT22;57113;48.680;8.890;2022-11-20T15:27:39;11.20;99.90
26304;DHT22;57113;48.680;8.890;2022-11-20T15:30:11;11.20;99.90
26304;DHT22;57113;48.680;8.890;2022-11-20T15:32:37;11.20;99.90
26304;DHT22;57113;48.680;8.890;2022-11-20T15:35:02;11.30;99.90
26304;DHT22;57113;48.680;8.890;2022-11-20T15:37:28;11.30;99.90
26304;DHT22;57113;48.680;8.890;2022-11-20T15:39:53;11.30;99.90
26304;DHT22;57113;48.680;8.890;2022-11-20T15:42:21;11.30;99.90
26304;DHT22;57113;48.680;8.890;2022-11-20T15:44:47;11.30;99.90
26304;DHT22;57113;48.680;8.890;2022-11-20T15:47:15;11.30;99.90
26304;DHT22;57113;48.680;8.890;2022-11-20T15:49:42;11.30;99.90
26304;DHT22;57113;48.680;8.890;2022-11-20T15:52:09;11.30;99.90
26304;DHT22;57113;48.680;8.890;2022-11-20T15:54:34;11.30;99.90
26304;DHT22;57113;48.680;8.890;2022-11-20T15:57:02;11.30;99.90
26304;DHT22;57113;48.680;8.890;2022-11-20T15:59:28;11.30;99.90
26304;DHT22;57113;48.680;8.890;2022-11-20T16:01:53;11.30;99.90
26304;DHT22;57113;48.680;8.890;2022-11-20T16:04:19;11.40;99.90
26304;DHT22;57113;48.680;8.890;2022-11-20T16:06:44;11.30;99.90
26304;DHT22;57113;48.680;8.890;2022-11-20T16:09:10;11.40;99.90
26304;DHT22;57113;48.680;8.890;2022-11-20T16:11:36;11.40;99.90
26304;DHT22;57113;48.680;8.890;2022-11-20T16:14:02;11.40;99.90
26304;DHT22;57113;48.680;8.890;2022-11-20T16:16:46;11.40;99.90
26304;DHT22;57113;48.680;8.890;2022-11-20T16:19:12;11.40;99.90
26304;DHT22;57113;48.680;8.890;2022-11-20T16:21:38;11.40;99.90
26304;DHT22;57113;48.680;8.890;2022-11-20T16:24:07;11.40;99.90
26304;DHT22;57113;48.680;8.890;2022-11-20T16:26:33;11.40;99.90
26304;DHT22;57113;48.680;8.890;2022-11-20T16:28:59;11.40;99.90
26304;DHT22;57113;48.680;8.890;2022-11-20T16:31:25;11.30;99.90
26304;DHT22;57113;48.680;8.890;2022-11-20T16:33:52;11.40;99.90
26304;DHT22;57113;48.680;8.890;2022-11-20T16:36:18;11.40;99.90
26304;DHT22;57113;48.680;8.890;2022-11-20T16:38:43;11.40;99.90
26304;DHT22;57113;48.680;8.890;2022-11-20T16:41:12;11.40;99.90
26304;DHT22;57113;48.680;8.890;2022-11-20T16:43:43;11.40;99.90
26304;DHT22;57113;48.680;8.890;2022-11-20T16:46:09;11.40;99.90